Terminal Aerodrome Forecast
Issued by NWS

Home | Current Version | Previous Version | Text Only | Print | Product List | Glossary On
Versions: 1 2 3 4 5 6 7 8 9 10 11 12 13
478
FTUS45 KRIW 010526
TAFBPI
TAF
KBPI 010526Z 0106/0206 VRB05KT P6SM FEW110
     FM011900 20010KT P6SM SCT080
     FM012100 21012G18KT P6SM VCTS SCT070CB BKN100
     FM020200 30010KT P6SM SCT070 BKN100=

USA.gov is the U.S. government's official web portal to all federal, state and local government web resources and services.